Time;durP1;ratioP1;P1;durP2;ratioP2;P2;SDS_P1;SDS_P2;PMS_P1;PMS_P2;Temp;Humidity;BMP_temperature;BMP_pressure;BME280_temperature;BME280_humidity;BME280_pressure;Samples;Min_cycle;Max_cycle;Signal;HPM_P1;HPM_P2
2021/09/24 00:00:14;;;;;;;21.27;8.37;;;15.30;99.90;;;;;;5075441;28;20682;-81
2021/09/24 00:02:42;;;;;;;21.50;8.57;;;15.30;99.90;;;;;;5075541;28;20212;-82
2021/09/24 00:05:09;;;;;;;14.00;7.73;;;15.30;99.90;;;;;;5075354;28;20211;-81
2021/09/24 00:07:36;;;;;;;15.83;8.33;;;15.30;99.90;;;;;;5075346;28;20204;-82
2021/09/24 00:10:04;;;;;;;15.97;8.50;;;15.30;99.90;;;;;;5075554;28;20286;-82
2021/09/24 00:12:31;;;;;;;19.80;8.30;;;15.30;99.90;;;;;;5075359;28;20200;-80
2021/09/24 00:14:58;;;;;;;19.63;8.87;;;15.30;99.90;;;;;;5075346;28;20231;-82
2021/09/24 00:17:26;;;;;;;15.80;8.57;;;15.40;99.90;;;;;;5075362;28;20634;-81
2021/09/24 00:19:54;;;;;;;17.97;8.83;;;15.40;99.90;;;;;;5074977;28;20200;-82
2021/09/24 00:22:21;;;;;;;17.80;9.40;;;15.50;99.90;;;;;;5075433;28;20214;-81
2021/09/24 00:24:48;;;;;;;18.23;8.93;;;15.50;99.90;;;;;;5075117;28;20401;-81
2021/09/24 00:27:15;;;;;;;14.47;8.47;;;15.60;99.90;;;;;;5075298;28;20212;-81
2021/09/24 00:29:42;;;;;;;15.80;9.23;;;15.60;99.90;;;;;;5075043;28;20303;-81
2021/09/24 00:32:09;;;;;;;23.07;10.03;;;15.60;99.90;;;;;;5075136;28;20209;-82
2021/09/24 00:34:37;;;;;;;19.93;9.80;;;15.60;99.90;;;;;;5074822;28;20231;-83
2021/09/24 00:37:04;;;;;;;17.17;10.33;;;15.70;99.90;;;;;;5074957;28;20203;-83
2021/09/24 00:39:31;;;;;;;26.43;10.47;;;15.80;99.90;;;;;;5075145;28;20204;-82
2021/09/24 00:41:58;;;;;;;20.73;10.00;;;15.80;99.90;;;;;;5074685;28;20289;-82
2021/09/24 00:44:27;;;;;;;17.77;10.50;;;15.80;99.90;;;;;;5074623;28;20231;-81
2021/09/24 00:46:55;;;;;;;19.80;10.13;;;15.70;99.90;;;;;;5074692;28;20613;-81
2021/09/24 00:49:22;;;;;;;26.67;11.30;;;15.80;99.90;;;;;;5074478;28;20667;-82
2021/09/24 00:51:50;;;;;;;23.03;10.60;;;15.70;99.90;;;;;;5074309;28;20744;-81
2021/09/24 00:54:17;;;;;;;24.93;12.50;;;15.80;99.90;;;;;;5074802;28;20310;-81
2021/09/24 00:56:44;;;;;;;24.80;12.63;;;15.80;99.90;;;;;;5074203;28;20674;-82
2021/09/24 00:59:11;;;;;;;30.73;13.50;;;15.80;99.90;;;;;;5074317;28;20740;-82
2021/09/24 01:01:39;;;;;;;28.60;13.40;;;15.90;99.90;;;;;;5074545;28;20231;-81
2021/09/24 01:04:07;;;;;;;23.47;12.63;;;15.90;99.90;;;;;;5074372;28;20728;-82
2021/09/24 01:06:35;;;;;;;31.07;13.13;;;16.00;99.90;;;;;;5074613;28;20219;-82
2021/09/24 01:09:04;;;;;;;24.00;13.00;;;15.90;99.90;;;;;;5074603;28;20658;-83
2021/09/24 01:11:31;;;;;;;28.43;13.10;;;15.90;99.90;;;;;;5073945;28;20204;-81
2021/09/24 01:13:58;;;;;;;29.17;14.00;;;16.00;99.90;;;;;;5074409;28;20203;-81
2021/09/24 01:16:25;;;;;;;32.67;14.40;;;16.00;99.90;;;;;;5074355;28;20195;-82
2021/09/24 01:18:51;;;;;;;27.40;15.33;;;16.00;99.90;;;;;;5074233;28;20208;-82
2021/09/24 01:21:20;;;;;;;35.87;15.40;;;16.00;99.90;;;;;;5074069;28;20294;-81
2021/09/24 01:23:47;;;;;;;29.67;14.50;;;16.10;99.90;;;;;;5073931;28;20294;-82
2021/09/24 01:26:14;;;;;;;29.93;14.53;;;16.10;99.90;;;;;;5073796;28;20648;-81
2021/09/24 01:28:44;;;;;;;25.33;14.90;;;16.10;99.90;;;;;;5073994;28;20266;-81
2021/09/24 01:31:11;;;;;;;37.17;14.83;;;16.20;99.90;;;;;;5073672;28;20566;-81
2021/09/24 01:33:38;;;;;;;36.80;14.30;;;16.20;99.90;;;;;;5059999;28;20306;-82
2021/09/24 01:36:05;;;;;;;31.00;14.50;;;16.30;99.90;;;;;;5073999;28;20199;-81
2021/09/24 01:38:33;;;;;;;36.83;14.20;;;16.20;99.90;;;;;;5073717;28;20204;-83
2021/09/24 01:41:00;;;;;;;27.27;14.20;;;16.30;99.90;;;;;;5073441;28;20208;-81
2021/09/24 01:43:27;;;;;;;28.93;14.17;;;16.30;99.90;;;;;;5073675;28;20288;-82
2021/09/24 01:45:54;;;;;;;27.17;13.80;;;16.30;99.90;;;;;;5073765;28;20583;-81
2021/09/24 01:48:21;;;;;;;27.60;13.43;;;16.30;99.90;;;;;;5073461;28;20309;-81
2021/09/24 01:50:47;;;;;;;29.17;14.17;;;16.40;99.90;;;;;;5073515;28;20227;-82
2021/09/24 01:53:14;;;;;;;28.40;13.47;;;16.50;99.90;;;;;;5073715;28;20208;-82
2021/09/24 01:55:43;;;;;;;31.10;13.73;;;16.50;99.90;;;;;;5073194;28;20286;-81
2021/09/24 01:58:10;;;;;;;28.67;15.20;;;16.60;99.90;;;;;;5073023;28;20203;-82
2021/09/24 02:00:36;;;;;;;31.80;14.33;;;16.60;99.90;;;;;;5073308;28;20215;-80
2021/09/24 02:03:03;;;;;;;26.90;13.90;;;16.70;99.90;;;;;;5073602;28;20286;-82
2021/09/24 02:05:30;;;;;;;31.30;14.70;;;16.70;99.90;;;;;;5073210;28;20563;-81
2021/09/24 02:07:57;;;;;;;32.67;14.50;;;16.70;99.90;;;;;;5072929;28;20204;-81
2021/09/24 02:10:24;;;;;;;30.23;15.33;;;16.70;99.90;;;;;;5073331;28;20222;-82
2021/09/24 02:12:57;;;;;;;31.17;14.80;;;16.70;99.90;;;;;;5073171;28;20587;-82
2021/09/24 02:15:24;;;;;;;30.37;15.60;;;16.70;99.90;;;;;;5073315;28;20222;-81
2021/09/24 02:17:51;;;;;;;28.67;14.43;;;16.80;99.90;;;;;;5072407;28;20207;-81
2021/09/24 02:20:18;;;;;;;30.57;13.90;;;16.80;99.90;;;;;;5072960;28;20661;-81
2021/09/24 02:22:45;;;;;;;26.20;14.80;;;16.90;99.90;;;;;;5072843;28;20218;-80
2021/09/24 02:25:12;;;;;;;33.80;13.97;;;16.90;99.90;;;;;;5072904;28;20580;-81
2021/09/24 02:27:39;;;;;;;27.90;14.50;;;16.90;99.90;;;;;;5073093;28;20294;-82
2021/09/24 02:30:08;;;;;;;28.90;14.00;;;16.90;99.90;;;;;;5073003;28;20209;-81
2021/09/24 02:32:35;;;;;;;39.80;14.90;;;17.00;99.90;;;;;;5072823;28;20211;-82
2021/09/24 02:35:03;;;;;;;35.67;15.07;;;17.00;99.90;;;;;;5072607;28;20203;-81
2021/09/24 02:37:29;;;;;;;31.43;14.90;;;17.00;99.90;;;;;;5072915;28;20207;-82
2021/09/24 02:39:56;;;;;;;35.80;14.70;;;17.00;99.90;;;;;;5073006;28;20203;-81
2021/09/24 02:42:23;;;;;;;31.10;14.40;;;17.00;99.90;;;;;;5072822;28;20759;-82
2021/09/24 02:44:50;;;;;;;29.77;14.10;;;17.00;99.90;;;;;;5072392;28;20644;-79
2021/09/24 02:47:18;;;;;;;27.10;14.53;;;16.90;99.90;;;;;;5072963;28;20644;-82
2021/09/24 02:49:47;;;;;;;31.67;14.17;;;16.90;99.90;;;;;;5072919;28;20218;-82
2021/09/24 02:52:15;;;;;;;30.67;14.50;;;16.90;99.90;;;;;;5073148;28;20266;-81
2021/09/24 02:54:42;;;;;;;30.77;14.83;;;16.80;99.90;;;;;;5072709;28;20287;-80
2021/09/24 02:57:09;;;;;;;26.23;14.50;;;16.80;99.90;;;;;;5064137;28;20570;-81
2021/09/24 02:59:36;;;;;;;28.03;14.63;;;16.80;99.90;;;;;;5072386;28;20569;-81
2021/09/24 03:02:03;;;;;;;27.80;14.23;;;16.80;99.90;;;;;;5072733;28;20226;-81
2021/09/24 03:04:31;;;;;;;34.37;14.40;;;16.80;99.90;;;;;;5072590;28;20200;-80
2021/09/24 03:06:58;;;;;;;28.13;14.30;;;16.90;99.90;;;;;;5072418;28;20714;-80
2021/09/24 03:09:25;;;;;;;25.07;14.63;;;16.90;99.90;;;;;;5072498;28;20298;-81
2021/09/24 03:11:52;;;;;;;27.53;14.90;;;16.90;99.90;;;;;;5072419;28;20204;-81
2021/09/24 03:14:18;;;;;;;32.93;15.23;;;16.90;99.90;;;;;;5072040;28;20719;-81
2021/09/24 03:16:45;;;;;;;35.07;14.43;;;16.90;99.90;;;;;;5072720;28;20286;-80
2021/09/24 03:19:14;;;;;;;32.23;14.77;;;16.90;99.90;;;;;;5072471;28;20214;-80
2021/09/24 03:21:42;;;;;;;32.07;14.00;;;17.00;99.90;;;;;;5072625;28;20204;-80
2021/09/24 03:24:09;;;;;;;30.80;15.07;;;17.00;99.90;;;;;;5072415;28;20572;-81
2021/09/24 03:26:37;;;;;;;29.33;14.83;;;17.00;99.90;;;;;;5072286;28;20231;-80
2021/09/24 03:29:04;;;;;;;34.60;14.77;;;17.10;99.90;;;;;;5072780;28;20204;-81
2021/09/24 03:31:31;;;;;;;30.27;13.73;;;17.00;99.90;;;;;;5075343;28;20204;-80
2021/09/24 03:33:57;;;;;;;28.90;14.23;;;17.00;99.90;;;;;;5075789;28;20211;-81
2021/09/24 03:36:24;;;;;;;31.93;13.60;;;17.00;99.90;;;;;;5075994;28;20623;-80
2021/09/24 03:38:53;;;;;;;30.30;13.17;;;17.10;99.90;;;;;;5076149;28;20650;-81
2021/09/24 03:41:19;;;;;;;28.03;13.60;;;17.00;99.90;;;;;;5076093;28;20203;-81
2021/09/24 03:43:46;;;;;;;32.03;14.43;;;17.00;99.90;;;;;;5076075;28;20203;-81
2021/09/24 03:46:13;;;;;;;29.93;13.73;;;17.00;99.90;;;;;;5075765;28;20227;-81
2021/09/24 03:48:40;;;;;;;29.07;13.93;;;17.00;99.90;;;;;;5062369;28;20289;-81
2021/09/24 03:51:07;;;;;;;29.60;13.37;;;17.00;99.90;;;;;;5076068;28;20207;-82
2021/09/24 03:53:34;;;;;;;29.87;13.03;;;16.90;99.90;;;;;;5075614;28;20382;-81
2021/09/24 03:56:04;;;;;;;27.90;13.43;;;16.90;99.90;;;;;;5075894;28;20210;-80
2021/09/24 03:58:31;;;;;;;30.13;13.27;;;16.90;99.90;;;;;;5075377;28;20206;-81
2021/09/24 04:00:58;;;;;;;35.00;13.43;;;17.00;99.90;;;;;;5075477;28;20206;-80
2021/09/24 04:03:25;;;;;;;25.60;13.73;;;17.00;99.90;;;;;;5075318;28;20207;-81
2021/09/24 04:05:52;;;;;;;30.37;14.40;;;17.10;99.90;;;;;;5075067;28;20215;-81
2021/09/24 04:08:19;;;;;;;32.10;14.00;;;17.00;99.90;;;;;;5075470;28;20205;-81
2021/09/24 04:10:46;;;;;;;33.67;14.03;;;17.00;99.90;;;;;;5075099;28;20717;-81
2021/09/24 04:13:14;;;;;;;33.83;14.47;;;17.00;99.90;;;;;;5075183;28;20656;-81
2021/09/24 04:15:41;;;;;;;40.23;14.47;;;17.00;99.90;;;;;;5074885;28;20191;-80
2021/09/24 04:18:08;;;;;;;36.23;14.67;;;17.00;99.90;;;;;;5075541;28;20200;-81
2021/09/24 04:20:35;;;;;;;37.03;16.07;;;17.00;99.90;;;;;;5075447;28;20333;-80
2021/09/24 04:23:02;;;;;;;27.83;13.77;;;17.00;99.90;;;;;;5074981;28;20200;-80
2021/09/24 04:25:29;;;;;;;27.57;14.80;;;17.00;99.90;;;;;;5074844;28;20203;-80
2021/09/24 04:27:56;;;;;;;36.00;14.87;;;17.00;99.90;;;;;;5075333;28;20206;-80
2021/09/24 04:30:24;;;;;;;32.47;15.63;;;16.90;99.90;;;;;;5075106;28;20211;-81
2021/09/24 04:32:51;;;;;;;29.50;14.67;;;16.90;99.90;;;;;;5075081;28;20572;-81
2021/09/24 04:35:18;;;;;;;27.90;14.80;;;16.90;99.90;;;;;;5075387;28;20230;-81
2021/09/24 04:37:45;;;;;;;33.13;15.27;;;16.90;99.90;;;;;;5074551;28;20239;-81
2021/09/24 04:40:13;;;;;;;32.17;15.10;;;17.00;99.90;;;;;;5075092;28;20210;-82
2021/09/24 04:42:40;;;;;;;29.33;15.50;;;17.00;99.90;;;;;;5074117;28;20199;-81
2021/09/24 04:45:07;;;;;;;30.37;15.37;;;17.00;99.90;;;;;;5075221;28;20286;-81
2021/09/24 04:47:36;;;;;;;31.40;16.53;;;17.00;99.90;;;;;;5074956;28;20290;-80
2021/09/24 04:50:03;;;;;;;34.50;17.10;;;17.00;99.90;;;;;;5074702;28;20289;-80
2021/09/24 04:52:30;;;;;;;35.47;17.70;;;17.10;99.90;;;;;;5073804;28;20213;-80
2021/09/24 04:54:57;;;;;;;41.03;18.23;;;17.00;99.90;;;;;;5071717;28;20215;-80
2021/09/24 04:57:23;;;;;;;35.23;16.43;;;17.00;99.90;;;;;;5074136;28;20294;-80
2021/09/24 04:59:50;;;;;;;35.63;17.17;;;17.10;99.90;;;;;;5073658;28;20203;-80
2021/09/24 05:02:17;;;;;;;29.97;17.30;;;17.10;99.90;;;;;;5066131;28;20576;-80
2021/09/24 05:04:45;;;;;;;32.23;16.60;;;17.10;99.90;;;;;;5056490;28;20576;-80
2021/09/24 05:07:12;;;;;;;35.93;16.67;;;17.10;99.90;;;;;;5073734;28;20215;-80
2021/09/24 05:09:39;;;;;;;31.00;17.10;;;17.10;99.90;;;;;;5074008;28;20728;-79
2021/09/24 05:12:07;;;;;;;33.90;15.73;;;17.10;99.90;;;;;;5073818;28;20221;-80
2021/09/24 05:14:33;;;;;;;30.63;16.60;;;17.10;99.90;;;;;;5072383;28;20231;-80
2021/09/24 05:17:01;;;;;;;36.20;15.43;;;17.10;99.90;;;;;;5073342;28;20566;-79
2021/09/24 05:19:28;;;;;;;31.60;15.73;;;17.00;99.90;;;;;;5073518;28;20210;-79
2021/09/24 05:21:56;;;;;;;30.90;16.37;;;17.00;99.90;;;;;;5069286;28;20258;-79
2021/09/24 05:24:23;;;;;;;27.67;15.43;;;17.00;99.90;;;;;;5064418;28;20298;-80
2021/09/24 05:26:50;;;;;;;29.70;15.37;;;16.90;99.90;;;;;;5058488;28;20220;-80
2021/09/24 05:29:17;;;;;;;29.87;15.43;;;17.00;99.90;;;;;;5059734;28;20290;-81
2021/09/24 05:31:46;;;;;;;27.43;14.87;;;16.90;99.90;;;;;;5056702;28;20204;-81
2021/09/24 05:34:13;;;;;;;34.20;15.20;;;16.90;99.90;;;;;;5058132;28;20674;-81
2021/09/24 05:36:40;;;;;;;32.37;16.07;;;16.90;99.90;;;;;;5060434;28;20202;-80
2021/09/24 05:39:10;;;;;;;29.23;15.70;;;16.90;99.90;;;;;;5069818;28;20199;-79
2021/09/24 05:41:40;;;;;;;32.27;16.43;;;17.00;99.90;;;;;;5069594;28;20608;-82
2021/09/24 05:44:07;;;;;;;36.17;18.47;;;17.10;99.90;;;;;;5077382;28;20289;-80
2021/09/24 05:46:34;;;;;;;36.17;15.93;;;17.10;99.90;;;;;;5060383;28;20699;-80
2021/09/24 05:49:01;;;;;;;29.90;15.97;;;17.10;99.90;;;;;;5072645;28;20257;-80
2021/09/24 05:51:29;;;;;;;36.77;15.67;;;17.10;99.90;;;;;;5070678;28;20282;-81
2021/09/24 05:53:55;;;;;;;29.73;15.43;;;17.00;99.90;;;;;;5061231;28;20282;-79
2021/09/24 05:56:24;;;;;;;25.27;15.33;;;17.00;99.90;;;;;;5072688;28;20656;-80
2021/09/24 05:58:51;;;;;;;26.60;15.63;;;17.10;99.90;;;;;;5063129;28;20231;-80
2021/09/24 06:01:17;;;;;;;31.27;15.43;;;17.10;99.90;;;;;;5057422;28;20209;-79
2021/09/24 06:03:44;;;;;;;39.93;16.27;;;17.10;99.90;;;;;;5063277;28;20753;-79
2021/09/24 06:06:11;;;;;;;33.93;16.30;;;17.10;99.90;;;;;;5070316;28;20344;-82
2021/09/24 06:08:38;;;;;;;29.97;15.27;;;17.00;99.90;;;;;;5063212;28;20236;-81
2021/09/24 06:11:05;;;;;;;41.60;15.77;;;17.10;99.90;;;;;;5057496;28;20314;-79
2021/09/24 06:13:33;;;;;;;31.10;14.63;;;17.10;99.90;;;;;;5061758;28;20306;-79
2021/09/24 06:16:00;;;;;;;34.77;15.27;;;17.20;99.90;;;;;;5067511;28;20298;-79
2021/09/24 06:18:29;;;;;;;30.43;14.67;;;17.20;99.90;;;;;;5066926;28;20206;-79
2021/09/24 06:20:58;;;;;;;30.40;15.57;;;17.30;99.90;;;;;;5072044;28;20223;-79
2021/09/24 06:23:25;;;;;;;33.40;15.20;;;17.40;99.90;;;;;;5072651;28;20203;-79
2021/09/24 06:25:52;;;;;;;28.97;14.97;;;17.40;99.90;;;;;;5073022;28;20200;-78
2021/09/24 06:28:19;;;;;;;29.57;15.23;;;17.40;99.90;;;;;;5072445;28;20306;-79
2021/09/24 06:30:48;;;;;;;30.23;15.37;;;17.50;99.90;;;;;;5071577;28;20286;-80
2021/09/24 06:33:14;;;;;;;30.93;14.63;;;17.60;99.90;;;;;;5071835;28;20303;-79
2021/09/24 06:35:41;;;;;;;34.57;15.03;;;17.60;99.90;;;;;;5071925;28;20223;-79
2021/09/24 06:38:08;;;;;;;29.83;15.40;;;17.60;99.90;;;;;;5073134;28;20552;-78
2021/09/24 06:40:35;;;;;;;35.53;15.57;;;17.60;99.90;;;;;;5072757;28;20207;-73
2021/09/24 06:43:02;;;;;;;31.30;14.57;;;17.60;99.90;;;;;;5072804;28;20202;-79
2021/09/24 06:45:29;;;;;;;27.70;13.87;;;17.70;99.90;;;;;;5072817;28;20206;-79
2021/09/24 06:47:57;;;;;;;29.07;13.83;;;17.70;99.90;;;;;;5072461;28;20230;-80
2021/09/24 06:50:24;;;;;;;24.70;14.03;;;17.80;99.90;;;;;;5073040;28;20201;-79
2021/09/24 06:52:51;;;;;;;30.30;13.93;;;17.90;99.90;;;;;;5072831;28;20618;-80
2021/09/24 06:55:21;;;;;;;25.80;13.50;;;17.90;99.90;;;;;;5072774;28;20549;-81
2021/09/24 06:57:48;;;;;;;32.50;13.80;;;18.00;99.90;;;;;;5072696;28;20657;-80
2021/09/24 07:00:16;;;;;;;30.10;14.00;;;18.10;99.90;;;;;;5072434;28;20206;-79
2021/09/24 07:02:43;;;;;;;23.33;14.23;;;18.00;99.90;;;;;;5072591;28;20634;-79
2021/09/24 07:05:11;;;;;;;28.37;13.13;;;18.00;99.90;;;;;;5075050;28;20286;-79
2021/09/24 07:07:39;;;;;;;22.57;13.33;;;18.00;99.90;;;;;;5076452;28;20593;-80
2021/09/24 07:10:07;;;;;;;25.70;12.60;;;18.20;99.90;;;;;;5076656;28;20195;-80
2021/09/24 07:12:34;;;;;;;28.97;12.73;;;18.30;99.90;;;;;;5076480;28;20291;-80
2021/09/24 07:15:01;;;;;;;23.57;11.63;;;18.30;99.90;;;;;;5076392;28;20195;-79
2021/09/24 07:17:28;;;;;;;24.87;11.93;;;18.30;99.90;;;;;;5076440;28;20201;-79
2021/09/24 07:19:56;;;;;;;24.27;12.20;;;18.40;99.90;;;;;;5076579;28;20268;-80
2021/09/24 07:22:25;;;;;;;21.50;11.50;;;18.50;99.90;;;;;;5076563;28;20207;-81
2021/09/24 07:24:54;;;;;;;29.23;12.00;;;18.50;99.90;;;;;;5076486;28;20195;-80
2021/09/24 07:27:21;;;;;;;28.40;11.43;;;18.60;99.90;;;;;;5076176;28;20224;-80
2021/09/24 07:29:49;;;;;;;25.60;11.23;;;18.70;99.90;;;;;;5076378;28;20196;-79
2021/09/24 07:32:16;;;;;;;23.40;11.33;;;18.70;99.90;;;;;;5076160;28;20253;-80
2021/09/24 07:34:43;;;;;;;22.20;10.90;;;18.80;99.90;;;;;;5076391;28;20279;-80
2021/09/24 07:37:11;;;;;;;18.47;9.83;;;18.90;99.90;;;;;;5076222;28;20283;-79
2021/09/24 07:39:39;;;;;;;22.83;9.97;;;18.90;99.90;;;;;;5076024;28;20679;-80
2021/09/24 07:42:07;;;;;;;24.37;11.20;;;19.00;99.90;;;;;;5075965;28;20560;-80
2021/09/24 07:44:35;;;;;;;17.83;9.73;;;19.00;99.90;;;;;;5076159;28;20199;-80
2021/09/24 07:47:02;;;;;;;16.37;9.77;;;19.10;99.90;;;;;;5076026;28;20219;-80
2021/09/24 07:49:28;;;;;;;22.20;11.20;;;19.20;99.90;;;;;;5076091;28;20195;-80
2021/09/24 07:51:55;;;;;;;22.60;10.50;;;19.20;99.90;;;;;;5075883;28;20306;-80
2021/09/24 07:54:24;;;;;;;20.67;10.30;;;19.20;99.90;;;;;;5075603;28;20559;-80
2021/09/24 07:56:53;;;;;;;24.67;10.97;;;19.40;99.90;;;;;;5075936;28;20202;-80
2021/09/24 07:59:20;;;;;;;19.23;10.20;;;19.60;99.90;;;;;;5075925;28;20540;-80
2021/09/24 08:01:47;;;;;;;27.03;10.63;;;19.70;99.90;;;;;;5075609;28;20657;-80
2021/09/24 08:04:14;;;;;;;20.30;10.97;;;19.70;99.90;;;;;;5075885;28;20199;-80
2021/09/24 08:06:41;;;;;;;21.77;10.93;;;19.70;99.90;;;;;;5075510;28;20204;-80
2021/09/24 08:09:08;;;;;;;22.87;10.70;;;19.80;99.90;;;;;;5075469;28;20198;-80
2021/09/24 08:11:36;;;;;;;24.67;11.80;;;19.90;99.90;;;;;;5075789;28;20202;-81
2021/09/24 08:14:04;;;;;;;21.33;11.13;;;20.10;99.90;;;;;;5071651;28;20627;-80
2021/09/24 08:16:31;;;;;;;21.57;10.73;;;20.10;99.90;;;;;;5074124;28;20199;-80
2021/09/24 08:18:58;;;;;;;20.80;10.50;;;20.30;99.90;;;;;;5074238;28;20199;-80
2021/09/24 08:21:25;;;;;;;23.07;11.13;;;20.30;99.90;;;;;;5075414;28;20195;-81
2021/09/24 08:23:53;;;;;;;20.40;11.60;;;20.40;99.90;;;;;;5075768;28;20195;-81
2021/09/24 08:26:21;;;;;;;23.07;11.37;;;20.30;99.90;;;;;;5075468;28;20275;-81
2021/09/24 08:28:48;;;;;;;23.23;11.57;;;20.40;99.90;;;;;;5074965;28;20273;-81
2021/09/24 08:31:16;;;;;;;23.70;10.67;;;20.40;99.90;;;;;;5075111;28;20196;-80
2021/09/24 08:33:44;;;;;;;19.27;11.10;;;20.50;99.90;;;;;;5075026;28;20302;-80
2021/09/24 08:36:11;;;;;;;19.90;10.77;;;20.60;99.90;;;;;;5075013;28;20278;-81
2021/09/24 08:38:37;;;;;;;20.90;11.23;;;20.80;99.90;;;;;;5075149;28;20287;-80
2021/09/24 08:41:04;;;;;;;20.77;10.47;;;21.00;99.90;;;;;;5075111;28;20278;-80
2021/09/24 08:43:31;;;;;;;20.77;10.73;;;20.90;99.90;;;;;;5074927;28;20661;-80
2021/09/24 08:45:58;;;;;;;18.93;10.70;;;21.00;99.90;;;;;;5074965;28;20198;-79
2021/09/24 08:48:28;;;;;;;18.87;9.77;;;21.20;99.90;;;;;;5074681;28;20230;-80
2021/09/24 08:50:55;;;;;;;19.27;9.67;;;21.40;99.90;;;;;;5074908;28;20203;-80
2021/09/24 08:53:24;;;;;;;19.20;10.00;;;21.50;99.90;;;;;;5074334;28;20191;-80
2021/09/24 08:55:51;;;;;;;19.70;9.63;;;21.60;99.90;;;;;;5074453;28;20660;-82
2021/09/24 08:58:18;;;;;;;16.40;10.20;;;21.60;99.90;;;;;;5074686;28;20204;-81
2021/09/24 09:00:45;;;;;;;19.03;9.50;;;21.40;99.90;;;;;;5074583;28;20290;-81
2021/09/24 09:03:14;;;;;;;14.90;9.57;;;21.30;99.90;;;;;;5074487;28;20201;-81
2021/09/24 09:05:44;;;;;;;16.73;9.03;;;21.40;99.90;;;;;;5074677;28;20195;-80
2021/09/24 09:08:15;;;;;;;16.13;9.30;;;21.60;99.90;;;;;;5074483;28;20308;-81
2021/09/24 09:10:45;;;;;;;19.13;9.50;;;22.00;99.90;;;;;;5074636;28;20252;-83
2021/09/24 09:13:14;;;;;;;15.10;9.77;;;22.00;99.90;;;;;;5074372;28;20290;-80
2021/09/24 09:15:50;;;;;;;16.77;9.48;;;21.80;99.90;;;;;;5074189;28;20196;-80
2021/09/24 09:18:19;;;;;;;21.07;9.53;;;21.70;99.90;;;;;;5074197;28;20659;-82
2021/09/24 09:20:48;;;;;;;17.38;9.88;;;21.90;99.90;;;;;;5074113;28;20770;-81
2021/09/24 09:23:16;;;;;;;18.17;9.33;;;21.90;99.90;;;;;;5074352;28;20282;-77
2021/09/24 09:25:45;;;;;;;15.17;8.63;;;22.10;99.90;;;;;;5073333;28;20576;-81
2021/09/24 09:28:14;;;;;;;13.60;8.17;;;22.20;99.90;;;;;;5055251;28;20224;-81
2021/09/24 09:30:43;;;;;;;16.10;8.30;;;22.40;99.90;;;;;;5054450;28;20212;-80
2021/09/24 09:33:15;;;;;;;15.90;8.10;;;22.50;99.90;;;;;;5055158;28;20660;-81
2021/09/24 09:35:43;;;;;;;15.03;8.47;;;22.50;99.90;;;;;;5054795;28;20664;-81
2021/09/24 09:38:20;;;;;;;14.95;8.18;;;22.50;99.90;;;;;;5055502;28;20208;-81
2021/09/24 09:40:53;;;;;;;10.10;7.80;;;22.40;99.90;;;;;;5055046;28;20287;-81
2021/09/24 09:43:27;;;;;;;14.23;8.77;;;22.70;99.90;;;;;;5054353;28;20197;-81
2021/09/24 09:45:54;;;;;;;16.27;8.15;;;22.40;99.90;;;;;;5059780;28;20197;-80
2021/09/24 09:48:20;;;;;;;11.20;7.60;;;22.30;99.90;;;;;;5066390;28;20220;-82
2021/09/24 09:50:47;;;;;;;16.70;8.50;;;22.10;99.90;;;;;;5060119;28;20280;-82
2021/09/24 09:53:16;;;;;;;14.07;8.60;;;21.70;99.90;;;;;;5052692;28;20203;-81
2021/09/24 09:55:51;;;;;;;13.77;7.97;;;21.60;99.90;;;;;;5059086;28;20199;-81
2021/09/24 09:58:19;;;;;;;18.83;8.57;;;21.70;99.90;;;;;;5054008;28;20290;-81
2021/09/24 10:01:11;;;;;;;17.33;8.87;;;21.90;99.90;;;;;;5056807;28;20656;-82
2021/09/24 10:03:40;;;;;;;15.23;8.60;;;21.80;99.90;;;;;;5063815;28;20649;-81
2021/09/24 10:06:21;;;;;;;16.77;8.43;;;21.80;99.90;;;;;;5069454;28;20282;-82
2021/09/24 10:08:51;;;;;;;14.38;7.60;;;21.80;99.90;;;;;;5063636;28;20262;-82
2021/09/24 10:11:20;;;;;;;16.05;7.97;;;22.30;99.90;;;;;;5057350;28;20195;-82
2021/09/24 10:13:52;;;;;;;13.40;7.60;;;23.10;99.90;;;;;;5056202;28;20215;-81
2021/09/24 10:16:23;;;;;;;9.65;7.50;;;24.20;99.90;;;;;;5059661;28;20248;-82
2021/09/24 10:18:50;;;;;;;13.07;7.80;;;25.00;99.90;;;;;;5054343;28;20584;-80
2021/09/24 10:21:17;;;;;;;15.73;7.95;;;25.20;99.90;;;;;;5057671;28;20664;-80
2021/09/24 10:23:44;;;;;;;12.40;8.38;;;25.30;99.90;;;;;;5055326;28;20200;-81
2021/09/24 10:26:18;;;;;;;14.30;7.80;;;25.50;99.90;;;;;;5056888;28;20226;-80
2021/09/24 10:28:47;;;;;;;7.65;6.68;;;26.20;99.90;;;;;;5060002;28;20225;-81
2021/09/24 10:31:17;;;;;;;11.07;7.25;;;26.20;99.90;;;;;;5061006;28;20200;-79
2021/09/24 10:33:46;;;;;;;13.15;7.75;;;26.30;99.90;;;;;;5053779;28;20200;-80
2021/09/24 10:36:36;;;;;;;11.98;7.40;;;26.00;99.90;;;;;;5069228;28;20225;-80
2021/09/24 10:39:05;;;;;;;13.18;7.78;;;24.90;99.90;;;;;;5069866;28;20550;-80
2021/09/24 10:41:32;;;;;;;10.07;6.95;;;24.20;99.90;;;;;;5070907;28;20200;-80
2021/09/24 10:44:00;;;;;;;15.73;7.50;;;23.60;99.90;;;;;;5070385;28;20675;-80
2021/09/24 10:46:32;;;;;;;13.55;7.22;;;23.30;99.90;;;;;;5070738;28;20195;-79
2021/09/24 10:49:32;;;;;;;11.70;6.30;;;23.40;99.90;;;;;;5069411;28;20219;-80
2021/09/24 10:52:14;;;;;;;10.40;6.93;;;23.50;99.90;;;;;;5055220;28;20614;-80
2021/09/24 10:54:55;;;;;;;9.18;6.40;;;23.40;99.90;;;;;;5057892;28;20232;-80
2021/09/24 10:57:23;;;;;;;7.57;5.45;;;23.90;99.90;;;;;;5061104;28;20275;-81
2021/09/24 10:59:51;;;;;;;8.88;4.80;;;25.10;99.90;;;;;;5059018;28;20280;-79
2021/09/24 11:02:38;;;;;;;7.25;5.50;;;25.90;99.90;;;;;;5061342;28;20658;-81
2021/09/24 11:05:07;;;;;;;5.22;3.53;;;25.20;99.90;;;;;;5051335;28;20192;-80
2021/09/24 11:07:36;;;;;;;7.45;4.22;;;24.60;99.90;;;;;;5057421;28;20207;-80
2021/09/24 11:10:04;;;;;;;9.23;4.30;;;24.10;99.90;;;;;;5060533;28;20196;-80
2021/09/24 11:12:31;;;;;;;7.22;4.80;;;23.50;99.90;;;;;;5059868;28;20200;-80
2021/09/24 11:15:14;;;;;;;9.07;5.68;;;23.40;99.90;;;;;;5060744;28;20192;-80
2021/09/24 11:17:46;;;;;;;7.63;5.20;;;23.70;99.90;;;;;;5061125;28;20196;-80
2021/09/24 11:20:35;;;;;;;10.35;5.88;;;24.40;99.90;;;;;;5059509;28;20220;-81
2021/09/24 11:23:35;;;;;;;8.00;5.70;;;24.40;99.90;;;;;;5062861;28;20288;-81
2021/09/24 11:26:14;;;;;;;7.85;5.18;;;24.60;99.90;;;;;;5069066;28;20737;-82
2021/09/24 11:28:43;;;;;;;7.93;5.38;;;24.40;99.90;;;;;;5062933;28;20259;-80
2021/09/24 11:31:12;;;;;;;6.53;5.25;;;24.30;99.90;;;;;;5068434;28;20203;-82
2021/09/24 11:33:45;;;;;;;8.38;5.85;;;24.10;99.90;;;;;;5071649;28;20306;-82
2021/09/24 11:36:12;;;;;;;7.32;5.15;;;24.10;99.90;;;;;;5068794;28;20199;-82
2021/09/24 11:38:39;;;;;;;11.85;5.18;;;24.40;99.90;;;;;;5071527;28;20286;-82
2021/09/24 11:41:06;;;;;;;8.60;5.60;;;24.50;99.90;;;;;;5071114;28;20708;-81
2021/09/24 11:43:35;;;;;;;12.30;5.70;;;24.70;99.90;;;;;;5071357;28;20206;-81
2021/09/24 11:46:12;;;;;;;9.60;4.93;;;24.70;99.90;;;;;;5071245;28;20235;-79
2021/09/24 11:48:39;;;;;;;7.78;5.70;;;24.70;99.90;;;;;;5069174;28;20290;-81
2021/09/24 11:51:15;;;;;;;9.05;4.72;;;24.40;99.90;;;;;;5071388;28;20230;-80
2021/09/24 11:53:46;;;;;;;5.20;4.45;;;24.60;99.90;;;;;;5075457;28;20239;-80
2021/09/24 11:56:18;;;;;;;8.50;4.38;;;25.60;99.90;;;;;;5073708;28;20730;-80
2021/09/24 11:58:45;;;;;;;6.22;4.03;;;26.30;99.90;;;;;;5074889;28;20330;-80
2021/09/24 12:01:16;;;;;;;6.28;4.88;;;26.30;99.90;;;;;;5074997;28;20291;-81
2021/09/24 12:03:42;;;;;;;6.47;3.40;;;26.30;99.90;;;;;;5074645;28;20206;-81
2021/09/24 12:06:12;;;;;;;3.35;2.90;;;25.60;99.90;;;;;;5074465;28;20592;-80
2021/09/24 12:08:42;;;;;;;7.80;2.72;;;25.30;99.90;;;;;;5075012;28;20740;-81
2021/09/24 12:11:11;;;;;;;6.03;2.67;;;24.90;99.90;;;;;;5074839;28;20202;-80
2021/09/24 12:13:44;;;;;;;3.15;2.35;;;24.70;99.90;;;;;;5075110;28;20243;-81
2021/09/24 12:16:16;;;;;;;3.58;2.50;;;24.30;99.90;;;;;;5075124;28;20258;-81
2021/09/24 12:18:52;;;;;;;5.80;3.08;;;23.90;99.90;;;;;;5074639;28;20195;-82
2021/09/24 12:21:21;;;;;;;5.40;2.30;;;23.60;99.90;;;;;;5074282;28;20542;-81
2021/09/24 12:23:49;;;;;;;4.72;2.10;;;23.10;99.90;;;;;;5075184;28;20235;-82
2021/09/24 12:26:16;;;;;;;2.80;1.80;;;22.70;99.90;;;;;;5074243;28;20254;-81
2021/09/24 12:28:59;;;;;;;5.50;2.25;;;22.60;99.90;;;;;;5074618;28;20637;-81
2021/09/24 12:31:34;;;;;;;3.58;2.10;;;23.10;99.90;;;;;;5074991;28;20203;-81
2021/09/24 12:34:01;;;;;;;4.78;2.50;;;23.70;99.90;;;;;;5074095;28;20310;-82
2021/09/24 12:36:28;;;;;;;4.60;1.85;;;24.30;99.90;;;;;;5073980;28;20596;-81